sensor_id;sensor_type;location;lat;lon;timestamp;temperature;humidity
3298;DHT22;1661;53.572;10.174;2023-02-08T00:01:21;-0.60;80.90
3298;DHT22;1661;53.572;10.174;2023-02-08T00:03:49;-0.60;80.80
3298;DHT22;1661;53.572;10.174;2023-02-08T00:06:17;-0.60;80.70
3298;DHT22;1661;53.572;10.174;2023-02-08T00:08:44;-0.60;80.70
3298;DHT22;1661;53.572;10.174;2023-02-08T00:11:11;-0.60;80.80
3298;DHT22;1661;53.572;10.174;2023-02-08T00:13:39;-0.60;80.70
3298;DHT22;1661;53.572;10.174;2023-02-08T00:16:07;-0.60;80.60
3298;DHT22;1661;53.572;10.174;2023-02-08T00:18:34;-0.60;80.50
3298;DHT22;1661;53.572;10.174;2023-02-08T00:21:05;-0.60;80.30
3298;DHT22;1661;53.572;10.174;2023-02-08T00:23:33;-0.60;80.20
3298;DHT22;1661;53.572;10.174;2023-02-08T00:26:00;-0.60;80.10
3298;DHT22;1661;53.572;10.174;2023-02-08T00:28:26;-0.70;80.10
3298;DHT22;1661;53.572;10.174;2023-02-08T00:30:53;-0.70;80.00
3298;DHT22;1661;53.572;10.174;2023-02-08T00:33:20;-0.70;80.10
3298;DHT22;1661;53.572;10.174;2023-02-08T00:35:50;-0.70;80.20
3298;DHT22;1661;53.572;10.174;2023-02-08T00:38:17;-0.70;80.30
3298;DHT22;1661;53.572;10.174;2023-02-08T00:40:46;-0.80;80.40
3298;DHT22;1661;53.572;10.174;2023-02-08T00:43:12;-0.80;80.30
3298;DHT22;1661;53.572;10.174;2023-02-08T00:45:39;-0.80;80.40
3298;DHT22;1661;53.572;10.174;2023-02-08T00:48:06;-0.80;80.40
3298;DHT22;1661;53.572;10.174;2023-02-08T00:50:33;-0.80;80.30
3298;DHT22;1661;53.572;10.174;2023-02-08T00:52:59;-0.80;80.40
3298;DHT22;1661;53.572;10.174;2023-02-08T00:55:26;-0.80;80.40
3298;DHT22;1661;53.572;10.174;2023-02-08T00:57:54;-0.80;80.40
3298;DHT22;1661;53.572;10.174;2023-02-08T01:00:21;-0.80;80.40
3298;DHT22;1661;53.572;10.174;2023-02-08T01:02:48;-0.80;80.30
3298;DHT22;1661;53.572;10.174;2023-02-08T01:05:15;-0.80;80.20
3298;DHT22;1661;53.572;10.174;2023-02-08T01:07:42;-0.90;80.20
3298;DHT22;1661;53.572;10.174;2023-02-08T01:10:09;-0.90;80.20
3298;DHT22;1661;53.572;10.174;2023-02-08T01:12:37;-0.90;80.20
3298;DHT22;1661;53.572;10.174;2023-02-08T01:15:06;-0.90;80.10
3298;DHT22;1661;53.572;10.174;2023-02-08T01:17:33;-0.90;80.10
3298;DHT22;1661;53.572;10.174;2023-02-08T01:20:00;-0.90;80.30
3298;DHT22;1661;53.572;10.174;2023-02-08T01:22:27;-1.00;80.40
3298;DHT22;1661;53.572;10.174;2023-02-08T01:24:54;-1.00;80.20
3298;DHT22;1661;53.572;10.174;2023-02-08T01:27:21;-1.00;80.00
3298;DHT22;1661;53.572;10.174;2023-02-08T01:29:49;-1.00;80.00
3298;DHT22;1661;53.572;10.174;2023-02-08T01:32:17;-1.00;79.90
3298;DHT22;1661;53.572;10.174;2023-02-08T01:34:44;-1.10;80.00
3298;DHT22;1661;53.572;10.174;2023-02-08T01:37:11;-1.10;80.20
3298;DHT22;1661;53.572;10.174;2023-02-08T01:39:37;-1.10;80.40
3298;DHT22;1661;53.572;10.174;2023-02-08T01:42:04;-1.10;80.40
3298;DHT22;1661;53.572;10.174;2023-02-08T01:47:49;-1.10;80.50
3298;DHT22;1661;53.572;10.174;2023-02-08T01:50:20;-1.20;80.20
3298;DHT22;1661;53.572;10.174;2023-02-08T01:52:48;-1.20;80.40
3298;DHT22;1661;53.572;10.174;2023-02-08T01:55:19;-1.20;80.50
3298;DHT22;1661;53.572;10.174;2023-02-08T01:57:50;-1.20;80.60
3298;DHT22;1661;53.572;10.174;2023-02-08T02:00:19;-1.20;80.60
3298;DHT22;1661;53.572;10.174;2023-02-08T02:02:51;-1.20;80.70
3298;DHT22;1661;53.572;10.174;2023-02-08T02:05:19;-1.20;80.80
3298;DHT22;1661;53.572;10.174;2023-02-08T02:07:47;-1.20;80.80
3298;DHT22;1661;53.572;10.174;2023-02-08T02:10:17;-1.30;80.90
3298;DHT22;1661;53.572;10.174;2023-02-08T02:12:46;-1.30;80.90
3298;DHT22;1661;53.572;10.174;2023-02-08T02:15:13;-1.30;80.70
3298;DHT22;1661;53.572;10.174;2023-02-08T02:17:40;-1.30;80.80
3298;DHT22;1661;53.572;10.174;2023-02-08T02:20:15;-1.30;80.90
3298;DHT22;1661;53.572;10.174;2023-02-08T02:31:53;-1.40;81.40
3298;DHT22;1661;53.572;10.174;2023-02-08T02:34:25;-1.40;81.50
3298;DHT22;1661;53.572;10.174;2023-02-08T02:37:02;-1.50;81.50
3298;DHT22;1661;53.572;10.174;2023-02-08T02:39:36;-1.50;81.70
3298;DHT22;1661;53.572;10.174;2023-02-08T02:42:11;-1.50;81.70
3298;DHT22;1661;53.572;10.174;2023-02-08T02:45:05;-1.50;81.80
3298;DHT22;1661;53.572;10.174;2023-02-08T02:47:40;-1.50;81.80
3298;DHT22;1661;53.572;10.174;2023-02-08T02:50:15;-1.50;81.80
3298;DHT22;1661;53.572;10.174;2023-02-08T02:52:49;-1.50;82.00
3298;DHT22;1661;53.572;10.174;2023-02-08T02:55:21;-1.50;82.10
3298;DHT22;1661;53.572;10.174;2023-02-08T02:57:50;-1.50;82.00
3298;DHT22;1661;53.572;10.174;2023-02-08T03:00:21;-1.50;81.90
3298;DHT22;1661;53.572;10.174;2023-02-08T03:02:51;-1.50;81.60
3298;DHT22;1661;53.572;10.174;2023-02-08T03:05:17;-1.60;81.60
3298;DHT22;1661;53.572;10.174;2023-02-08T03:08:02;-1.60;81.60
3298;DHT22;1661;53.572;10.174;2023-02-08T03:10:54;-1.60;81.50
3298;DHT22;1661;53.572;10.174;2023-02-08T03:13:31;-1.60;81.80
3298;DHT22;1661;53.572;10.174;2023-02-08T03:16:07;-1.60;81.70
3298;DHT22;1661;53.572;10.174;2023-02-08T03:18:50;-1.60;81.50
3298;DHT22;1661;53.572;10.174;2023-02-08T03:21:25;-1.60;81.50
3298;DHT22;1661;53.572;10.174;2023-02-08T03:24:01;-1.60;81.50
3298;DHT22;1661;53.572;10.174;2023-02-08T03:26:36;-1.60;81.20
3298;DHT22;1661;53.572;10.174;2023-02-08T03:29:10;-1.60;80.90
3298;DHT22;1661;53.572;10.174;2023-02-08T03:31:41;-1.60;80.90
3298;DHT22;1661;53.572;10.174;2023-02-08T03:34:13;-1.60;81.10
3298;DHT22;1661;53.572;10.174;2023-02-08T03:36:43;-1.60;81.20
3298;DHT22;1661;53.572;10.174;2023-02-08T03:39:17;-1.60;81.00
3298;DHT22;1661;53.572;10.174;2023-02-08T03:41:48;-1.70;80.80
3298;DHT22;1661;53.572;10.174;2023-02-08T03:44:20;-1.70;81.00
3298;DHT22;1661;53.572;10.174;2023-02-08T03:46:51;-1.70;80.90
3298;DHT22;1661;53.572;10.174;2023-02-08T03:49:24;-1.70;80.90
3298;DHT22;1661;53.572;10.174;2023-02-08T03:51:54;-1.70;80.90
3298;DHT22;1661;53.572;10.174;2023-02-08T03:54:27;-1.70;81.10
3298;DHT22;1661;53.572;10.174;2023-02-08T03:57:02;-1.70;81.40
3298;DHT22;1661;53.572;10.174;2023-02-08T03:59:33;-1.70;81.50
3298;DHT22;1661;53.572;10.174;2023-02-08T04:02:02;-1.70;81.60
3298;DHT22;1661;53.572;10.174;2023-02-08T04:04:34;-1.70;81.60
3298;DHT22;1661;53.572;10.174;2023-02-08T04:07:01;-1.70;81.60
3298;DHT22;1661;53.572;10.174;2023-02-08T04:09:28;-1.70;81.60
3298;DHT22;1661;53.572;10.174;2023-02-08T04:11:55;-1.70;81.60
3298;DHT22;1661;53.572;10.174;2023-02-08T04:14:22;-1.70;81.60
3298;DHT22;1661;53.572;10.174;2023-02-08T04:16:49;-1.70;81.50
3298;DHT22;1661;53.572;10.174;2023-02-08T04:19:15;-1.80;81.50
3298;DHT22;1661;53.572;10.174;2023-02-08T04:21:44;-1.80;81.70
3298;DHT22;1661;53.572;10.174;2023-02-08T04:24:10;-1.80;81.50
3298;DHT22;1661;53.572;10.174;2023-02-08T04:26:37;-1.80;81.50
3298;DHT22;1661;53.572;10.174;2023-02-08T04:29:04;-1.80;81.50
3298;DHT22;1661;53.572;10.174;2023-02-08T04:31:31;-1.80;81.40
3298;DHT22;1661;53.572;10.174;2023-02-08T04:33:57;-1.80;81.30
3298;DHT22;1661;53.572;10.174;2023-02-08T04:36:24;-1.80;81.30
3298;DHT22;1661;53.572;10.174;2023-02-08T04:38:52;-1.80;81.30
3298;DHT22;1661;53.572;10.174;2023-02-08T04:41:19;-1.90;81.30
3298;DHT22;1661;53.572;10.174;2023-02-08T04:43:46;-1.90;81.30
3298;DHT22;1661;53.572;10.174;2023-02-08T04:46:13;-2.00;81.50
3298;DHT22;1661;53.572;10.174;2023-02-08T04:48:39;-2.00;81.60
3298;DHT22;1661;53.572;10.174;2023-02-08T04:51:06;-2.00;81.70
3298;DHT22;1661;53.572;10.174;2023-02-08T04:53:33;-2.00;81.80
3298;DHT22;1661;53.572;10.174;2023-02-08T04:56:01;-2.00;81.90
3298;DHT22;1661;53.572;10.174;2023-02-08T04:58:28;-2.00;81.90
3298;DHT22;1661;53.572;10.174;2023-02-08T05:00:55;-2.10;82.00
3298;DHT22;1661;53.572;10.174;2023-02-08T05:03:21;-2.10;82.10
3298;DHT22;1661;53.572;10.174;2023-02-08T05:05:56;-2.10;82.30
3298;DHT22;1661;53.572;10.174;2023-02-08T05:08:23;-2.20;82.40
3298;DHT22;1661;53.572;10.174;2023-02-08T05:10:50;-2.20;82.60
3298;DHT22;1661;53.572;10.174;2023-02-08T05:13:18;-2.30;82.70
3298;DHT22;1661;53.572;10.174;2023-02-08T05:15:45;-2.30;82.90
3298;DHT22;1661;53.572;10.174;2023-02-08T05:18:12;-2.30;83.10
3298;DHT22;1661;53.572;10.174;2023-02-08T05:20:39;-2.20;83.10
3298;DHT22;1661;53.572;10.174;2023-02-08T05:23:06;-2.20;83.10
3298;DHT22;1661;53.572;10.174;2023-02-08T05:25:33;-2.20;83.00
3298;DHT22;1661;53.572;10.174;2023-02-08T05:28:01;-2.20;82.90
3298;DHT22;1661;53.572;10.174;2023-02-08T05:30:29;-2.20;82.90
3298;DHT22;1661;53.572;10.174;2023-02-08T05:32:56;-2.20;82.80
3298;DHT22;1661;53.572;10.174;2023-02-08T05:35:23;-2.20;82.70
3298;DHT22;1661;53.572;10.174;2023-02-08T05:37:50;-2.10;82.70
3298;DHT22;1661;53.572;10.174;2023-02-08T05:40:17;-2.10;82.50
3298;DHT22;1661;53.572;10.174;2023-02-08T05:42:44;-2.10;82.50
3298;DHT22;1661;53.572;10.174;2023-02-08T05:45:12;-2.20;82.40
3298;DHT22;1661;53.572;10.174;2023-02-08T05:47:40;-2.20;82.40
3298;DHT22;1661;53.572;10.174;2023-02-08T05:50:08;-2.20;82.60
3298;DHT22;1661;53.572;10.174;2023-02-08T05:52:34;-2.30;82.80
3298;DHT22;1661;53.572;10.174;2023-02-08T05:55:01;-2.40;83.00
3298;DHT22;1661;53.572;10.174;2023-02-08T05:57:28;-2.50;83.20
3298;DHT22;1661;53.572;10.174;2023-02-08T05:59:55;-2.50;83.30
3298;DHT22;1661;53.572;10.174;2023-02-08T06:02:22;-2.50;83.50
3298;DHT22;1661;53.572;10.174;2023-02-08T06:04:50;-2.40;83.60
3298;DHT22;1661;53.572;10.174;2023-02-08T06:07:17;-2.40;83.50
3298;DHT22;1661;53.572;10.174;2023-02-08T06:09:43;-2.30;83.50
3298;DHT22;1661;53.572;10.174;2023-02-08T06:12:12;-2.30;83.30
3298;DHT22;1661;53.572;10.174;2023-02-08T06:14:39;-2.20;83.20
3298;DHT22;1661;53.572;10.174;2023-02-08T06:17:06;-2.20;83.00
3298;DHT22;1661;53.572;10.174;2023-02-08T06:19:33;-2.20;83.00
3298;DHT22;1661;53.572;10.174;2023-02-08T06:22:01;-2.20;83.00
3298;DHT22;1661;53.572;10.174;2023-02-08T06:24:28;-2.20;82.80
3298;DHT22;1661;53.572;10.174;2023-02-08T06:26:55;-2.20;82.70
3298;DHT22;1661;53.572;10.174;2023-02-08T06:29:23;-2.10;82.50
3298;DHT22;1661;53.572;10.174;2023-02-08T06:31:49;-2.10;82.40
3298;DHT22;1661;53.572;10.174;2023-02-08T06:34:16;-2.10;82.30
3298;DHT22;1661;53.572;10.174;2023-02-08T06:36:43;-2.10;82.10
3298;DHT22;1661;53.572;10.174;2023-02-08T06:39:12;-2.10;82.00
3298;DHT22;1661;53.572;10.174;2023-02-08T06:41:39;-2.10;81.90
3298;DHT22;1661;53.572;10.174;2023-02-08T06:44:05;-2.10;81.80
3298;DHT22;1661;53.572;10.174;2023-02-08T06:46:32;-2.10;81.90
3298;DHT22;1661;53.572;10.174;2023-02-08T06:48:59;-2.10;81.90
3298;DHT22;1661;53.572;10.174;2023-02-08T06:51:26;-2.10;81.90
3298;DHT22;1661;53.572;10.174;2023-02-08T06:53:53;-2.10;81.90
3298;DHT22;1661;53.572;10.174;2023-02-08T06:56:21;-2.10;81.80
3298;DHT22;1661;53.572;10.174;2023-02-08T06:58:48;-2.10;81.70
3298;DHT22;1661;53.572;10.174;2023-02-08T07:01:15;-2.10;81.60
3298;DHT22;1661;53.572;10.174;2023-02-08T07:03:41;-2.00;81.50
3298;DHT22;1661;53.572;10.174;2023-02-08T07:06:12;-2.00;81.40
3298;DHT22;1661;53.572;10.174;2023-02-08T07:08:39;-2.00;81.40
3298;DHT22;1661;53.572;10.174;2023-02-08T07:11:07;-2.00;81.30
3298;DHT22;1661;53.572;10.174;2023-02-08T07:13:35;-2.00;81.30
3298;DHT22;1661;53.572;10.174;2023-02-08T07:16:02;-2.10;81.30
3298;DHT22;1661;53.572;10.174;2023-02-08T07:18:29;-2.20;81.70
3298;DHT22;1661;53.572;10.174;2023-02-08T07:20:56;-2.30;82.00
3298;DHT22;1661;53.572;10.174;2023-02-08T07:23:23;-2.30;82.30
3298;DHT22;1661;53.572;10.174;2023-02-08T07:25:57;-2.40;82.90
3298;DHT22;1661;53.572;10.174;2023-02-08T07:28:24;-2.50;83.30
3298;DHT22;1661;53.572;10.174;2023-02-08T07:30:52;-2.50;83.60
3298;DHT22;1661;53.572;10.174;2023-02-08T07:33:19;-2.50;84.00
3298;DHT22;1661;53.572;10.174;2023-02-08T07:35:46;-2.50;84.40
3298;DHT22;1661;53.572;10.174;2023-02-08T07:38:13;-2.50;84.50
3298;DHT22;1661;53.572;10.174;2023-02-08T07:40:40;-2.50;84.70
3298;DHT22;1661;53.572;10.174;2023-02-08T07:43:07;-2.50;84.90
3298;DHT22;1661;53.572;10.174;2023-02-08T07:45:36;-2.40;85.00
3298;DHT22;1661;53.572;10.174;2023-02-08T07:48:04;-2.30;85.00
3298;DHT22;1661;53.572;10.174;2023-02-08T07:50:32;-2.30;85.00
3298;DHT22;1661;53.572;10.174;2023-02-08T07:53:00;-2.30;85.10
3298;DHT22;1661;53.572;10.174;2023-02-08T07:55:27;-2.30;85.30
3298;DHT22;1661;53.572;10.174;2023-02-08T07:57:55;-2.30;85.50
3298;DHT22;1661;53.572;10.174;2023-02-08T08:00:23;-2.20;85.50
3298;DHT22;1661;53.572;10.174;2023-02-08T08:02:51;-2.20;85.50
3298;DHT22;1661;53.572;10.174;2023-02-08T08:05:19;-2.10;85.40
3298;DHT22;1661;53.572;10.174;2023-02-08T08:07:46;-2.00;85.10
3298;DHT22;1661;53.572;10.174;2023-02-08T08:10:13;-1.90;84.90
3298;DHT22;1661;53.572;10.174;2023-02-08T08:12:40;-1.80;84.80
3298;DHT22;1661;53.572;10.174;2023-02-08T08:15:07;-1.70;84.80
3298;DHT22;1661;53.572;10.174;2023-02-08T08:17:34;-1.60;84.50
3298;DHT22;1661;53.572;10.174;2023-02-08T08:20:00;-1.50;84.30
3298;DHT22;1661;53.572;10.174;2023-02-08T08:22:29;-1.50;84.00
3298;DHT22;1661;53.572;10.174;2023-02-08T08:24:55;-1.50;83.70
3298;DHT22;1661;53.572;10.174;2023-02-08T08:27:23;-1.40;83.80
3298;DHT22;1661;53.572;10.174;2023-02-08T08:29:50;-1.30;83.50
3298;DHT22;1661;53.572;10.174;2023-02-08T08:32:16;-1.20;83.30
3298;DHT22;1661;53.572;10.174;2023-02-08T08:34:43;-1.00;83.10
3298;DHT22;1661;53.572;10.174;2023-02-08T08:37:10;-0.80;82.50
3298;DHT22;1661;53.572;10.174;2023-02-08T08:39:38;-0.60;82.30
3298;DHT22;1661;53.572;10.174;2023-02-08T08:42:05;-0.40;81.40
3298;DHT22;1661;53.572;10.174;2023-02-08T08:44:32;-0.30;80.40
3298;DHT22;1661;53.572;10.174;2023-02-08T08:46:59;-0.20;79.00
3298;DHT22;1661;53.572;10.174;2023-02-08T08:49:27;-0.10;78.60
3298;DHT22;1661;53.572;10.174;2023-02-08T08:51:55;0.20;78.80
3298;DHT22;1661;53.572;10.174;2023-02-08T08:54:22;0.40;77.70
3298;DHT22;1661;53.572;10.174;2023-02-08T08:56:50;0.60;77.00
3298;DHT22;1661;53.572;10.174;2023-02-08T08:59:17;0.80;76.60
3298;DHT22;1661;53.572;10.174;2023-02-08T09:01:44;1.00;75.40
3298;DHT22;1661;53.572;10.174;2023-02-08T09:04:11;1.10;74.10
3298;DHT22;1661;53.572;10.174;2023-02-08T09:06:37;1.20;73.80
3298;DHT22;1661;53.572;10.174;2023-02-08T09:09:05;1.40;73.70
3298;DHT22;1661;53.572;10.174;2023-02-08T09:11:32;1.60;73.20
3298;DHT22;1661;53.572;10.174;2023-02-08T09:14:02;1.80;72.60
3298;DHT22;1661;53.572;10.174;2023-02-08T09:16:30;2.10;71.10
3298;DHT22;1661;53.572;10.174;2023-02-08T09:18:59;2.20;70.00
3298;DHT22;1661;53.572;10.174;2023-02-08T09:21:26;2.50;69.40
3298;DHT22;1661;53.572;10.174;2023-02-08T09:23:53;2.70;68.40
3298;DHT22;1661;53.572;10.174;2023-02-08T09:26:20;2.90;66.70
3298;DHT22;1661;53.572;10.174;2023-02-08T09:28:47;3.00;66.60
3298;DHT22;1661;53.572;10.174;2023-02-08T09:31:18;3.30;66.20
3298;DHT22;1661;53.572;10.174;2023-02-08T09:33:46;3.40;63.80
3298;DHT22;1661;53.572;10.174;2023-02-08T09:36:13;3.60;63.80
3298;DHT22;1661;53.572;10.174;2023-02-08T09:38:41;3.70;63.50
3298;DHT22;1661;53.572;10.174;2023-02-08T09:41:20;3.90;63.00
3298;DHT22;1661;53.572;10.174;2023-02-08T09:43:59;4.00;62.00
3298;DHT22;1661;53.572;10.174;2023-02-08T09:46:36;4.10;61.70
3298;DHT22;1661;53.572;10.174;2023-02-08T09:49:08;4.30;61.30
3298;DHT22;1661;53.572;10.174;2023-02-08T09:51:39;4.40;60.30
3298;DHT22;1661;53.572;10.174;2023-02-08T09:54:13;4.50;59.90
3298;DHT22;1661;53.572;10.174;2023-02-08T09:56:42;4.80;59.80
3298;DHT22;1661;53.572;10.174;2023-02-08T09:59:15;4.90;59.10
3298;DHT22;1661;53.572;10.174;2023-02-08T10:01:44;5.10;59.40
3298;DHT22;1661;53.572;10.174;2023-02-08T10:04:19;5.10;58.20
3298;DHT22;1661;53.572;10.174;2023-02-08T10:06:49;5.20;57.70
3298;DHT22;1661;53.572;10.174;2023-02-08T10:09:21;5.30;58.00
3298;DHT22;1661;53.572;10.174;2023-02-08T10:11:58;5.40;57.20
3298;DHT22;1661;53.572;10.174;2023-02-08T10:14:39;5.50;56.60
3298;DHT22;1661;53.572;10.174;2023-02-08T10:17:28;5.60;56.20
3298;DHT22;1661;53.572;10.174;2023-02-08T10:20:03;5.40;55.70
3298;DHT22;1661;53.572;10.174;2023-02-08T10:22:40;5.50;56.50
3298;DHT22;1661;53.572;10.174;2023-02-08T10:25:34;5.60;56.50
3298;DHT22;1661;53.572;10.174;2023-02-08T10:28:21;5.70;55.30
3298;DHT22;1661;53.572;10.174;2023-02-08T10:30:56;5.70;55.30
3298;DHT22;1661;53.572;10.174;2023-02-08T10:33:35;5.70;54.90
3298;DHT22;1661;53.572;10.174;2023-02-08T10:36:12;5.80;55.10
3298;DHT22;1661;53.572;10.174;2023-02-08T10:38:41;6.00;54.90
3298;DHT22;1661;53.572;10.174;2023-02-08T10:41:09;6.10;54.10
3298;DHT22;1661;53.572;10.174;2023-02-08T10:43:45;6.20;53.30
3298;DHT22;1661;53.572;10.174;2023-02-08T10:46:17;6.20;52.30
3298;DHT22;1661;53.572;10.174;2023-02-08T10:48:54;6.30;53.70
3298;DHT22;1661;53.572;10.174;2023-02-08T10:51:25;6.60;53.60
3298;DHT22;1661;53.572;10.174;2023-02-08T10:53:53;6.60;51.90
3298;DHT22;1661;53.572;10.174;2023-02-08T10:56:39;6.80;52.40
3298;DHT22;1661;53.572;10.174;2023-02-08T10:59:17;6.90;53.10
3298;DHT22;1661;53.572;10.174;2023-02-08T11:01:46;7.00;53.40
3298;DHT22;1661;53.572;10.174;2023-02-08T11:04:16;7.10;52.20
3298;DHT22;1661;53.572;10.174;2023-02-08T11:06:44;7.20;51.40
3298;DHT22;1661;53.572;10.174;2023-02-08T11:09:20;7.30;50.80
3298;DHT22;1661;53.572;10.174;2023-02-08T11:11:48;7.40;50.60
3298;DHT22;1661;53.572;10.174;2023-02-08T11:14:19;7.50;49.80
3298;DHT22;1661;53.572;10.174;2023-02-08T11:16:49;7.50;49.40
3298;DHT22;1661;53.572;10.174;2023-02-08T11:19:21;7.50;48.50
3298;DHT22;1661;53.572;10.174;2023-02-08T11:21:50;7.60;49.20
3298;DHT22;1661;53.572;10.174;2023-02-08T11:24:27;7.70;49.80
3298;DHT22;1661;53.572;10.174;2023-02-08T11:26:55;7.60;49.60
3298;DHT22;1661;53.572;10.174;2023-02-08T11:29:26;7.60;49.20
3298;DHT22;1661;53.572;10.174;2023-02-08T11:32:01;7.50;49.30
3298;DHT22;1661;53.572;10.174;2023-02-08T11:34:31;7.60;49.00
3298;DHT22;1661;53.572;10.174;2023-02-08T11:37:00;7.50;48.70
3298;DHT22;1661;53.572;10.174;2023-02-08T11:39:33;7.40;48.30
3298;DHT22;1661;53.572;10.174;2023-02-08T11:42:01;7.60;48.30
3298;DHT22;1661;53.572;10.174;2023-02-08T11:44:30;7.70;48.50
3298;DHT22;1661;53.572;10.174;2023-02-08T11:46:59;7.80;49.40
3298;DHT22;1661;53.572;10.174;2023-02-08T11:49:31;7.90;47.50
3298;DHT22;1661;53.572;10.174;2023-02-08T11:52:01;8.00;47.10
3298;DHT22;1661;53.572;10.174;2023-02-08T11:54:35;8.00;47.20
3298;DHT22;1661;53.572;10.174;2023-02-08T11:57:11;8.00;46.90
3298;DHT22;1661;53.572;10.174;2023-02-08T11:59:39;8.20;47.30
3298;DHT22;1661;53.572;10.174;2023-02-08T12:02:33;8.20;46.90
3298;DHT22;1661;53.572;10.174;2023-02-08T12:05:04;8.10;45.20
3298;DHT22;1661;53.572;10.174;2023-02-08T12:07:53;8.00;46.10
3298;DHT22;1661;53.572;10.174;2023-02-08T12:10:37;7.90;45.60
3298;DHT22;1661;53.572;10.174;2023-02-08T12:13:25;7.70;46.10
3298;DHT22;1661;53.572;10.174;2023-02-08T12:16:07;7.70;47.00
3298;DHT22;1661;53.572;10.174;2023-02-08T12:18:58;7.50;46.00
3298;DHT22;1661;53.572;10.174;2023-02-08T12:21:36;7.60;47.50
3298;DHT22;1661;53.572;10.174;2023-02-08T12:24:13;7.70;47.50
3298;DHT22;1661;53.572;10.174;2023-02-08T12:26:53;7.90;47.10
3298;DHT22;1661;53.572;10.174;2023-02-08T12:29:32;8.00;47.60
3298;DHT22;1661;53.572;10.174;2023-02-08T12:32:10;8.20;47.80
3298;DHT22;1661;53.572;10.174;2023-02-08T12:34:55;8.20;45.60
3298;DHT22;1661;53.572;10.174;2023-02-08T12:37:37;8.00;45.90
3298;DHT22;1661;53.572;10.174;2023-02-08T12:40:33;8.00;46.40
3298;DHT22;1661;53.572;10.174;2023-02-08T12:43:28;8.20;46.60
3298;DHT22;1661;53.572;10.174;2023-02-08T12:46:20;8.30;46.90
3298;DHT22;1661;53.572;10.174;2023-02-08T12:49:00;8.40;45.80
3298;DHT22;1661;53.572;10.174;2023-02-08T12:51:37;8.40;44.60
3298;DHT22;1661;53.572;10.174;2023-02-08T12:54:14;8.40;45.50
3298;DHT22;1661;53.572;10.174;2023-02-08T12:56:47;8.20;46.20
3298;DHT22;1661;53.572;10.174;2023-02-08T12:59:21;8.20;43.90
3298;DHT22;1661;53.572;10.174;2023-02-08T13:01:52;8.20;45.10
3298;DHT22;1661;53.572;10.174;2023-02-08T13:04:28;8.30;45.70
3298;DHT22;1661;53.572;10.174;2023-02-08T13:06:59;8.40;45.40
3298;DHT22;1661;53.572;10.174;2023-02-08T13:09:38;8.50;45.00
3298;DHT22;1661;53.572;10.174;2023-02-08T13:12:11;8.60;45.50
3298;DHT22;1661;53.572;10.174;2023-02-08T13:14:42;8.70;46.10
3298;DHT22;1661;53.572;10.174;2023-02-08T13:17:15;8.90;44.90
3298;DHT22;1661;53.572;10.174;2023-02-08T13:19:50;9.00;43.60
3298;DHT22;1661;53.572;10.174;2023-02-08T13:22:18;9.20;43.40
3298;DHT22;1661;53.572;10.174;2023-02-08T13:24:48;9.20;43.40
3298;DHT22;1661;53.572;10.174;2023-02-08T13:27:19;9.00;43.20
3298;DHT22;1661;53.572;10.174;2023-02-08T13:29:47;9.00;44.60
3298;DHT22;1661;53.572;10.174;2023-02-08T13:32:20;9.10;45.40
3298;DHT22;1661;53.572;10.174;2023-02-08T13:34:56;9.10;44.10
3298;DHT22;1661;53.572;10.174;2023-02-08T13:37:25;9.00;44.10
3298;DHT22;1661;53.572;10.174;2023-02-08T13:40:01;9.00;43.80
3298;DHT22;1661;53.572;10.174;2023-02-08T13:42:32;9.00;44.00
3298;DHT22;1661;53.572;10.174;2023-02-08T13:45:00;8.90;44.40
3298;DHT22;1661;53.572;10.174;2023-02-08T13:47:30;9.00;45.00
3298;DHT22;1661;53.572;10.174;2023-02-08T13:49:59;8.90;45.00
3298;DHT22;1661;53.572;10.174;2023-02-08T13:52:47;8.80;46.30
3298;DHT22;1661;53.572;10.174;2023-02-08T13:55:51;8.70;46.60
3298;DHT22;1661;53.572;10.174;2023-02-08T14:01:33;8.70;45.10
3298;DHT22;1661;53.572;10.174;2023-02-08T14:07:26;9.00;43.70
3298;DHT22;1661;53.572;10.174;2023-02-08T14:10:05;9.10;44.00
3298;DHT22;1661;53.572;10.174;2023-02-08T14:12:38;9.20;45.30
3298;DHT22;1661;53.572;10.174;2023-02-08T14:15:25;9.30;44.60
3298;DHT22;1661;53.572;10.174;2023-02-08T14:17:53;9.20;44.10
3298;DHT22;1661;53.572;10.174;2023-02-08T14:20:25;9.10;44.60
3298;DHT22;1661;53.572;10.174;2023-02-08T14:22:55;9.00;44.40
3298;DHT22;1661;53.572;10.174;2023-02-08T14:25:24;8.90;45.10
3298;DHT22;1661;53.572;10.174;2023-02-08T14:27:54;8.90;45.30
3298;DHT22;1661;53.572;10.174;2023-02-08T14:30:25;8.70;44.60
3298;DHT22;1661;53.572;10.174;2023-02-08T14:33:08;8.60;46.20
3298;DHT22;1661;53.572;10.174;2023-02-08T14:35:39;8.40;46.90
3298;DHT22;1661;53.572;10.174;2023-02-08T14:41:42;8.50;45.90
3298;DHT22;1661;53.572;10.174;2023-02-08T14:50:31;8.70;46.80
3298;DHT22;1661;53.572;10.174;2023-02-08T14:53:03;8.50;48.00
3298;DHT22;1661;53.572;10.174;2023-02-08T14:55:36;8.30;46.90
3298;DHT22;1661;53.572;10.174;2023-02-08T14:58:05;8.30;47.00
3298;DHT22;1661;53.572;10.174;2023-02-08T15:00:35;8.20;47.70
3298;DHT22;1661;53.572;10.174;2023-02-08T15:03:04;8.00;50.30
3298;DHT22;1661;53.572;10.174;2023-02-08T15:05:39;7.80;51.70
3298;DHT22;1661;53.572;10.174;2023-02-08T15:08:09;7.60;51.70
3298;DHT22;1661;53.572;10.174;2023-02-08T15:10:41;7.60;53.40
3298;DHT22;1661;53.572;10.174;2023-02-08T15:13:16;7.60;52.90
3298;DHT22;1661;53.572;10.174;2023-02-08T15:15:48;7.40;54.50
3298;DHT22;1661;53.572;10.174;2023-02-08T15:18:18;7.30;54.60
3298;DHT22;1661;53.572;10.174;2023-02-08T15:20:58;7.10;54.10
3298;DHT22;1661;53.572;10.174;2023-02-08T15:23:25;7.00;54.70
3298;DHT22;1661;53.572;10.174;2023-02-08T15:25:57;6.90;55.30
3298;DHT22;1661;53.572;10.174;2023-02-08T15:28:25;6.80;55.90
3298;DHT22;1661;53.572;10.174;2023-02-08T15:30:55;6.60;55.00
3298;DHT22;1661;53.572;10.174;2023-02-08T15:33:24;6.50;57.20
3298;DHT22;1661;53.572;10.174;2023-02-08T15:35:57;6.50;57.20
3298;DHT22;1661;53.572;10.174;2023-02-08T15:38:25;6.40;56.30
3298;DHT22;1661;53.572;10.174;2023-02-08T15:41:04;6.30;57.20
3298;DHT22;1661;53.572;10.174;2023-02-08T15:43:31;6.20;57.70
3298;DHT22;1661;53.572;10.174;2023-02-08T15:46:00;6.10;57.00
3298;DHT22;1661;53.572;10.174;2023-02-08T15:48:28;5.80;57.20
3298;DHT22;1661;53.572;10.174;2023-02-08T15:50:57;5.80;57.80
3298;DHT22;1661;53.572;10.174;2023-02-08T15:53:26;5.80;58.70
3298;DHT22;1661;53.572;10.174;2023-02-08T15:55:56;5.80;58.10
3298;DHT22;1661;53.572;10.174;2023-02-08T15:58:27;5.80;58.20
3298;DHT22;1661;53.572;10.174;2023-02-08T16:00:56;5.70;57.90
3298;DHT22;1661;53.572;10.174;2023-02-08T16:03:25;5.60;58.10
3298;DHT22;1661;53.572;10.174;2023-02-08T16:05:56;5.50;60.30
3298;DHT22;1661;53.572;10.174;2023-02-08T16:08:26;5.50;59.70
3298;DHT22;1661;53.572;10.174;2023-02-08T16:10:55;5.40;59.90
3298;DHT22;1661;53.572;10.174;2023-02-08T16:13:27;5.40;60.70
3298;DHT22;1661;53.572;10.174;2023-02-08T16:15:57;5.20;60.00
3298;DHT22;1661;53.572;10.174;2023-02-08T16:18:40;5.20;62.20
3298;DHT22;1661;53.572;10.174;2023-02-08T16:21:27;5.20;61.30
3298;DHT22;1661;53.572;10.174;2023-02-08T16:23:56;5.10;62.20
3298;DHT22;1661;53.572;10.174;2023-02-08T16:26:25;5.00;60.80
3298;DHT22;1661;53.572;10.174;2023-02-08T16:28:54;4.90;62.60
3298;DHT22;1661;53.572;10.174;2023-02-08T16:31:23;4.80;61.90
3298;DHT22;1661;53.572;10.174;2023-02-08T16:33:58;4.70;62.40
3298;DHT22;1661;53.572;10.174;2023-02-08T16:36:31;4.70;63.10
3298;DHT22;1661;53.572;10.174;2023-02-08T16:42:20;4.50;62.70
3298;DHT22;1661;53.572;10.174;2023-02-08T16:45:19;4.50;63.20
3298;DHT22;1661;53.572;10.174;2023-02-08T16:47:49;4.40;63.50